sensor_id;sensor_type;location;lat;lon;timestamp;pressure;altitude;pressure_sealevel;temperature;humidity
13604;BME280;24578;48.264;11.436;2023-06-05T00:02:28;96186.84;;;16.10;91.49
13604;BME280;24578;48.264;11.436;2023-06-05T00:05:50;96191.00;;;16.03;96.67
13604;BME280;24578;48.264;11.436;2023-06-05T00:09:12;96187.81;;;16.09;100.00
13604;BME280;24578;48.264;11.436;2023-06-05T00:12:35;96187.34;;;16.14;100.00
13604;BME280;24578;48.264;11.436;2023-06-05T00:15:57;96182.94;;;16.14;100.00
13604;BME280;24578;48.264;11.436;2023-06-05T00:19:19;96184.28;;;16.19;100.00
13604;BME280;24578;48.264;11.436;2023-06-05T00:22:41;96184.88;;;16.12;100.00
13604;BME280;24578;48.264;11.436;2023-06-05T00:26:05;96177.19;;;16.11;100.00
13604;BME280;24578;48.264;11.436;2023-06-05T00:29:27;96180.72;;;16.20;100.00
13604;BME280;24578;48.264;11.436;2023-06-05T00:32:49;96178.25;;;16.18;100.00
13604;BME280;24578;48.264;11.436;2023-06-05T00:36:11;96172.72;;;16.21;100.00
13604;BME280;24578;48.264;11.436;2023-06-05T00:39:32;96177.81;;;16.23;100.00
13604;BME280;24578;48.264;11.436;2023-06-05T00:42:54;96172.94;;;16.28;100.00
13604;BME280;24578;48.264;11.436;2023-06-05T00:46:16;96173.34;;;16.15;100.00
13604;BME280;24578;48.264;11.436;2023-06-05T00:49:38;96162.88;;;16.15;100.00
13604;BME280;24578;48.264;11.436;2023-06-05T00:53:04;96163.91;;;16.04;100.00
13604;BME280;24578;48.264;11.436;2023-06-05T00:56:27;96162.13;;;16.05;100.00
13604;BME280;24578;48.264;11.436;2023-06-05T00:59:50;96166.28;;;15.97;100.00
13604;BME280;24578;48.264;11.436;2023-06-05T01:03:12;96162.75;;;15.89;100.00
13604;BME280;24578;48.264;11.436;2023-06-05T01:06:35;96170.16;;;15.83;100.00
13604;BME280;24578;48.264;11.436;2023-06-05T01:10:01;96161.53;;;15.83;100.00
13604;BME280;24578;48.264;11.436;2023-06-05T01:13:31;96155.97;;;15.68;100.00
13604;BME280;24578;48.264;11.436;2023-06-05T01:16:59;96154.88;;;15.71;100.00
13604;BME280;24578;48.264;11.436;2023-06-05T01:20:22;96156.94;;;15.67;100.00
13604;BME280;24578;48.264;11.436;2023-06-05T01:23:43;96142.00;;;15.59;100.00
13604;BME280;24578;48.264;11.436;2023-06-05T01:27:15;96150.78;;;15.58;100.00
13604;BME280;24578;48.264;11.436;2023-06-05T01:31:06;96149.72;;;15.51;100.00
13604;BME280;24578;48.264;11.436;2023-06-05T01:34:30;96155.00;;;15.41;100.00
13604;BME280;24578;48.264;11.436;2023-06-05T01:37:53;96152.56;;;15.30;100.00
13604;BME280;24578;48.264;11.436;2023-06-05T01:41:17;96149.00;;;15.31;100.00
13604;BME280;24578;48.264;11.436;2023-06-05T01:44:42;96141.72;;;15.25;100.00
13604;BME280;24578;48.264;11.436;2023-06-05T01:48:04;96138.06;;;15.17;100.00
13604;BME280;24578;48.264;11.436;2023-06-05T01:51:26;96144.63;;;15.21;100.00
13604;BME280;24578;48.264;11.436;2023-06-05T01:54:49;96141.63;;;15.16;100.00
13604;BME280;24578;48.264;11.436;2023-06-05T01:58:11;96140.69;;;15.07;100.00
13604;BME280;24578;48.264;11.436;2023-06-05T02:01:33;96144.13;;;14.98;100.00
13604;BME280;24578;48.264;11.436;2023-06-05T02:04:55;96149.91;;;14.92;100.00
13604;BME280;24578;48.264;11.436;2023-06-05T02:08:21;96139.50;;;14.92;100.00
13604;BME280;24578;48.264;11.436;2023-06-05T02:11:44;96145.25;;;14.86;100.00
13604;BME280;24578;48.264;11.436;2023-06-05T02:15:08;96146.63;;;14.80;100.00
13604;BME280;24578;48.264;11.436;2023-06-05T02:18:34;96144.47;;;14.75;100.00
13604;BME280;24578;48.264;11.436;2023-06-05T02:21:58;96147.75;;;14.68;100.00
13604;BME280;24578;48.264;11.436;2023-06-05T02:25:21;96149.91;;;14.62;100.00
13604;BME280;24578;48.264;11.436;2023-06-05T02:28:44;96147.47;;;14.61;100.00
13604;BME280;24578;48.264;11.436;2023-06-05T02:32:06;96144.84;;;14.61;100.00
13604;BME280;24578;48.264;11.436;2023-06-05T02:35:27;96141.97;;;14.54;100.00
13604;BME280;24578;48.264;11.436;2023-06-05T02:38:51;96145.81;;;14.50;100.00
13604;BME280;24578;48.264;11.436;2023-06-05T02:42:13;96146.50;;;14.42;100.00
13604;BME280;24578;48.264;11.436;2023-06-05T02:45:35;96151.16;;;14.39;100.00
13604;BME280;24578;48.264;11.436;2023-06-05T02:48:57;96153.63;;;14.30;100.00
13604;BME280;24578;48.264;11.436;2023-06-05T02:52:18;96154.56;;;14.29;100.00
13604;BME280;24578;48.264;11.436;2023-06-05T02:55:40;96155.94;;;14.24;100.00
13604;BME280;24578;48.264;11.436;2023-06-05T02:59:03;96154.84;;;14.16;100.00
13604;BME280;24578;48.264;11.436;2023-06-05T03:02:26;96142.38;;;14.10;100.00
13604;BME280;24578;48.264;11.436;2023-06-05T03:05:48;96153.88;;;14.08;100.00
13604;BME280;24578;48.264;11.436;2023-06-05T03:09:10;96149.06;;;14.03;100.00
13604;BME280;24578;48.264;11.436;2023-06-05T03:12:33;96150.31;;;13.99;100.00
13604;BME280;24578;48.264;11.436;2023-06-05T03:15:58;96154.94;;;13.95;100.00
13604;BME280;24578;48.264;11.436;2023-06-05T03:19:22;96150.97;;;13.91;100.00
13604;BME280;24578;48.264;11.436;2023-06-05T03:22:44;96149.88;;;13.94;100.00
13604;BME280;24578;48.264;11.436;2023-06-05T03:26:06;96137.81;;;13.93;100.00
13604;BME280;24578;48.264;11.436;2023-06-05T03:29:27;96140.28;;;13.94;100.00
13604;BME280;24578;48.264;11.436;2023-06-05T03:32:49;96137.13;;;13.91;100.00
13604;BME280;24578;48.264;11.436;2023-06-05T03:36:11;96144.22;;;13.89;100.00
13604;BME280;24578;48.264;11.436;2023-06-05T03:39:33;96147.94;;;13.86;100.00
13604;BME280;24578;48.264;11.436;2023-06-05T03:42:55;96150.69;;;13.84;100.00
13604;BME280;24578;48.264;11.436;2023-06-05T03:46:16;96149.31;;;13.80;100.00
13604;BME280;24578;48.264;11.436;2023-06-05T03:49:41;96155.31;;;13.81;100.00
13604;BME280;24578;48.264;11.436;2023-06-05T03:53:07;96157.91;;;13.81;100.00
13604;BME280;24578;48.264;11.436;2023-06-05T03:56:29;96153.56;;;13.81;100.00
13604;BME280;24578;48.264;11.436;2023-06-05T03:59:55;96156.84;;;13.83;100.00
13604;BME280;24578;48.264;11.436;2023-06-05T04:03:17;96156.84;;;13.83;100.00
13604;BME280;24578;48.264;11.436;2023-06-05T04:06:40;96154.38;;;13.92;100.00
13604;BME280;24578;48.264;11.436;2023-06-05T04:10:02;96152.22;;;13.97;100.00
13604;BME280;24578;48.264;11.436;2023-06-05T04:13:24;96153.72;;;14.09;100.00
13604;BME280;24578;48.264;11.436;2023-06-05T04:16:46;96139.78;;;14.69;100.00
13604;BME280;24578;48.264;11.436;2023-06-05T04:20:08;96149.13;;;15.29;100.00
13604;BME280;24578;48.264;11.436;2023-06-05T04:23:35;96152.91;;;15.45;100.00
13604;BME280;24578;48.264;11.436;2023-06-05T04:26:58;96144.09;;;15.56;100.00
13604;BME280;24578;48.264;11.436;2023-06-05T04:30:29;96152.06;;;16.28;100.00
13604;BME280;24578;48.264;11.436;2023-06-05T04:33:51;96141.19;;;16.51;100.00
13604;BME280;24578;48.264;11.436;2023-06-05T04:37:13;96142.56;;;16.63;100.00
13604;BME280;24578;48.264;11.436;2023-06-05T04:40:35;96141.28;;;17.73;100.00
13604;BME280;24578;48.264;11.436;2023-06-05T04:43:57;96135.09;;;18.75;100.00
13604;BME280;24578;48.264;11.436;2023-06-05T04:47:21;96131.53;;;19.48;100.00
13604;BME280;24578;48.264;11.436;2023-06-05T04:50:43;96135.41;;;20.32;100.00
13604;BME280;24578;48.264;11.436;2023-06-05T04:54:04;96138.81;;;21.03;100.00
13604;BME280;24578;48.264;11.436;2023-06-05T04:57:27;96138.53;;;21.66;100.00
13604;BME280;24578;48.264;11.436;2023-06-05T05:00:49;96144.03;;;22.23;100.00
13604;BME280;24578;48.264;11.436;2023-06-05T05:04:11;96143.81;;;22.02;100.00
13604;BME280;24578;48.264;11.436;2023-06-05T05:07:33;96156.00;;;20.75;100.00
13604;BME280;24578;48.264;11.436;2023-06-05T05:10:55;96153.00;;;19.60;100.00
13604;BME280;24578;48.264;11.436;2023-06-05T05:14:17;96162.28;;;18.90;100.00
13604;BME280;24578;48.264;11.436;2023-06-05T05:17:39;96163.75;;;18.35;100.00
13604;BME280;24578;48.264;11.436;2023-06-05T05:21:01;96162.38;;;18.14;100.00
13604;BME280;24578;48.264;11.436;2023-06-05T05:24:23;96164.63;;;18.01;100.00
13604;BME280;24578;48.264;11.436;2023-06-05T05:27:46;96165.09;;;17.96;100.00
13604;BME280;24578;48.264;11.436;2023-06-05T05:31:08;96163.00;;;18.00;100.00
13604;BME280;24578;48.264;11.436;2023-06-05T05:34:29;96164.63;;;18.01;100.00
13604;BME280;24578;48.264;11.436;2023-06-05T05:37:51;96161.22;;;18.08;100.00
13604;BME280;24578;48.264;11.436;2023-06-05T05:41:13;96164.56;;;18.44;100.00
13604;BME280;24578;48.264;11.436;2023-06-05T05:44:34;96159.72;;;19.63;100.00
13604;BME280;24578;48.264;11.436;2023-06-05T05:47:57;96148.09;;;22.03;100.00
13604;BME280;24578;48.264;11.436;2023-06-05T05:51:19;96154.94;;;24.12;86.84
13604;BME280;24578;48.264;11.436;2023-06-05T05:54:40;96140.53;;;25.69;72.73
13604;BME280;24578;48.264;11.436;2023-06-05T05:58:02;96152.09;;;25.88;67.92
13604;BME280;24578;48.264;11.436;2023-06-05T06:01:24;96144.94;;;26.41;59.50
13604;BME280;24578;48.264;11.436;2023-06-05T06:04:46;96141.53;;;27.16;53.63
13604;BME280;24578;48.264;11.436;2023-06-05T06:08:08;96141.84;;;28.50;48.03
13604;BME280;24578;48.264;11.436;2023-06-05T06:11:29;96136.97;;;29.01;44.42
13604;BME280;24578;48.264;11.436;2023-06-05T06:14:51;96147.63;;;29.61;41.42
13604;BME280;24578;48.264;11.436;2023-06-05T06:18:13;96140.13;;;29.87;40.15
13604;BME280;24578;48.264;11.436;2023-06-05T06:21:35;96142.72;;;30.51;38.03
13604;BME280;24578;48.264;11.436;2023-06-05T06:24:56;96150.81;;;30.57;36.88
13604;BME280;24578;48.264;11.436;2023-06-05T06:28:19;96143.22;;;30.36;37.24
13604;BME280;24578;48.264;11.436;2023-06-05T06:31:41;96147.59;;;30.72;35.54
13604;BME280;24578;48.264;11.436;2023-06-05T06:35:04;96153.22;;;29.36;37.51
13604;BME280;24578;48.264;11.436;2023-06-05T06:38:27;96154.59;;;27.36;43.75
13604;BME280;24578;48.264;11.436;2023-06-05T06:41:51;96157.72;;;26.19;46.92
13604;BME280;24578;48.264;11.436;2023-06-05T06:45:15;96159.69;;;25.78;48.18
13604;BME280;24578;48.264;11.436;2023-06-05T06:48:37;96163.63;;;25.48;49.96
13604;BME280;24578;48.264;11.436;2023-06-05T06:52:00;96163.13;;;26.37;46.10
13604;BME280;24578;48.264;11.436;2023-06-05T06:55:22;96163.50;;;27.68;41.69
13604;BME280;24578;48.264;11.436;2023-06-05T06:58:44;96166.41;;;29.42;38.42
13604;BME280;24578;48.264;11.436;2023-06-05T07:02:13;96162.50;;;30.67;35.20
13604;BME280;24578;48.264;11.436;2023-06-05T07:05:35;96157.91;;;31.53;32.89
13604;BME280;24578;48.264;11.436;2023-06-05T07:08:57;96152.81;;;31.91;32.37
13604;BME280;24578;48.264;11.436;2023-06-05T07:12:19;96145.06;;;32.17;31.76
13604;BME280;24578;48.264;11.436;2023-06-05T07:15:44;96154.63;;;31.68;31.95
13604;BME280;24578;48.264;11.436;2023-06-05T07:19:05;96153.31;;;32.10;31.28
13604;BME280;24578;48.264;11.436;2023-06-05T07:22:27;96154.34;;;32.09;31.47
13604;BME280;24578;48.264;11.436;2023-06-05T07:25:50;96147.66;;;31.84;31.42
13604;BME280;24578;48.264;11.436;2023-06-05T07:29:12;96151.69;;;31.87;31.73
13604;BME280;24578;48.264;11.436;2023-06-05T07:32:34;96145.88;;;32.72;31.45
13604;BME280;24578;48.264;11.436;2023-06-05T07:35:56;96149.41;;;33.10;30.10
13604;BME280;24578;48.264;11.436;2023-06-05T07:39:21;96143.25;;;32.23;30.08
13604;BME280;24578;48.264;11.436;2023-06-05T07:42:43;96142.03;;;32.58;30.20
13604;BME280;24578;48.264;11.436;2023-06-05T07:46:05;96141.47;;;32.28;31.01
13604;BME280;24578;48.264;11.436;2023-06-05T07:49:30;96144.25;;;32.39;30.90
13604;BME280;24578;48.264;11.436;2023-06-05T07:52:54;96139.75;;;32.77;30.58
13604;BME280;24578;48.264;11.436;2023-06-05T07:56:16;96137.94;;;33.15;29.04
13604;BME280;24578;48.264;11.436;2023-06-05T07:59:38;96145.19;;;31.61;30.73
13604;BME280;24578;48.264;11.436;2023-06-05T08:03:00;96147.00;;;31.38;32.25
13604;BME280;24578;48.264;11.436;2023-06-05T08:06:23;96145.59;;;31.92;30.70
13604;BME280;24578;48.264;11.436;2023-06-05T08:09:45;96142.53;;;31.21;31.83
13604;BME280;24578;48.264;11.436;2023-06-05T08:13:08;96146.47;;;31.02;31.90
13604;BME280;24578;48.264;11.436;2023-06-05T08:16:30;96138.50;;;31.41;31.98
13604;BME280;24578;48.264;11.436;2023-06-05T08:19:52;96139.66;;;31.11;31.82
13604;BME280;24578;48.264;11.436;2023-06-05T08:23:14;96141.94;;;30.85;31.51
13604;BME280;24578;48.264;11.436;2023-06-05T08:26:36;96136.31;;;31.77;31.29
13604;BME280;24578;48.264;11.436;2023-06-05T08:29:58;96138.22;;;32.81;28.89
13604;BME280;24578;48.264;11.436;2023-06-05T08:33:21;96131.66;;;32.99;28.87
13604;BME280;24578;48.264;11.436;2023-06-05T08:36:42;96131.97;;;33.08;28.08
13604;BME280;24578;48.264;11.436;2023-06-05T08:40:06;96129.97;;;32.28;28.13
13604;BME280;24578;48.264;11.436;2023-06-05T08:43:30;96129.53;;;31.30;30.45
13604;BME280;24578;48.264;11.436;2023-06-05T08:46:59;96135.00;;;31.18;31.36
13604;BME280;24578;48.264;11.436;2023-06-05T08:50:22;96126.34;;;31.50;31.02
13604;BME280;24578;48.264;11.436;2023-06-05T08:54:02;96131.94;;;32.38;29.34
13604;BME280;24578;48.264;11.436;2023-06-05T08:57:34;96130.97;;;32.82;28.13
13604;BME280;24578;48.264;11.436;2023-06-05T09:00:59;96134.19;;;33.16;28.46
13604;BME280;24578;48.264;11.436;2023-06-05T09:04:21;96126.22;;;32.29;29.19
13604;BME280;24578;48.264;11.436;2023-06-05T09:07:43;96125.16;;;31.63;29.92
13604;BME280;24578;48.264;11.436;2023-06-05T09:11:33;96121.19;;;31.66;30.15
13604;BME280;24578;48.264;11.436;2023-06-05T09:14:55;96124.50;;;32.23;29.46
13604;BME280;24578;48.264;11.436;2023-06-05T09:18:17;96121.22;;;32.70;29.06
13604;BME280;24578;48.264;11.436;2023-06-05T09:21:39;96123.16;;;33.13;28.11
13604;BME280;24578;48.264;11.436;2023-06-05T09:25:01;96113.06;;;33.78;27.11
13604;BME280;24578;48.264;11.436;2023-06-05T09:28:23;96110.06;;;34.69;26.41
13604;BME280;24578;48.264;11.436;2023-06-05T09:31:45;96106.81;;;35.09;25.49
13604;BME280;24578;48.264;11.436;2023-06-05T09:35:07;96110.66;;;35.78;25.03
13604;BME280;24578;48.264;11.436;2023-06-05T09:38:29;96109.44;;;36.10;24.60
13604;BME280;24578;48.264;11.436;2023-06-05T09:41:54;96107.91;;;34.97;24.34
13604;BME280;24578;48.264;11.436;2023-06-05T09:45:16;96104.81;;;33.95;25.99
13604;BME280;24578;48.264;11.436;2023-06-05T09:48:39;96113.06;;;33.83;26.86
13604;BME280;24578;48.264;11.436;2023-06-05T09:52:01;96093.34;;;34.31;26.21
13604;BME280;24578;48.264;11.436;2023-06-05T09:55:25;96094.72;;;34.85;24.54
13604;BME280;24578;48.264;11.436;2023-06-05T09:58:49;96099.84;;;34.66;26.01
13604;BME280;24578;48.264;11.436;2023-06-05T10:02:12;96092.84;;;34.50;26.57
13604;BME280;24578;48.264;11.436;2023-06-05T10:05:38;96094.94;;;33.43;26.46
13604;BME280;24578;48.264;11.436;2023-06-05T10:09:01;96097.13;;;33.56;27.31
13604;BME280;24578;48.264;11.436;2023-06-05T10:12:24;96079.91;;;34.15;27.16
13604;BME280;24578;48.264;11.436;2023-06-05T10:15:52;96082.91;;;34.86;25.70
13604;BME280;24578;48.264;11.436;2023-06-05T10:19:15;96092.50;;;34.10;26.23
13604;BME280;24578;48.264;11.436;2023-06-05T10:22:41;96095.13;;;32.88;26.64
13604;BME280;24578;48.264;11.436;2023-06-05T10:26:15;96080.22;;;33.02;27.52
13604;BME280;24578;48.264;11.436;2023-06-05T10:33:35;96078.59;;;32.31;28.77
13604;BME280;24578;48.264;11.436;2023-06-05T10:40:58;96086.72;;;33.65;25.36
13604;BME280;24578;48.264;11.436;2023-06-05T10:44:41;96081.78;;;34.20;24.78
13604;BME280;24578;48.264;11.436;2023-06-05T10:48:03;96079.50;;;32.19;27.53
13604;BME280;24578;48.264;11.436;2023-06-05T10:55:09;96095.25;;;29.31;32.42
13604;BME280;24578;48.264;11.436;2023-06-05T10:58:32;96092.50;;;29.78;32.09
13604;BME280;24578;48.264;11.436;2023-06-05T11:05:30;96076.50;;;31.22;30.65
13604;BME280;24578;48.264;11.436;2023-06-05T11:09:14;96077.84;;;31.41;29.39
13604;BME280;24578;48.264;11.436;2023-06-05T11:16:00;96070.97;;;31.95;27.86
13604;BME280;24578;48.264;11.436;2023-06-05T11:26:40;96049.47;;;33.79;25.82
13604;BME280;24578;48.264;11.436;2023-06-05T11:30:04;96054.13;;;34.14;23.67
13604;BME280;24578;48.264;11.436;2023-06-05T11:33:28;96056.72;;;32.77;24.88
13604;BME280;24578;48.264;11.436;2023-06-05T11:36:50;96055.31;;;32.69;24.65
13604;BME280;24578;48.264;11.436;2023-06-05T11:40:24;96042.66;;;32.97;25.04
13604;BME280;24578;48.264;11.436;2023-06-05T11:43:46;96041.91;;;33.60;24.07
13604;BME280;24578;48.264;11.436;2023-06-05T11:47:22;96046.75;;;33.74;24.34
13604;BME280;24578;48.264;11.436;2023-06-05T11:50:55;96043.13;;;34.16;23.62
13604;BME280;24578;48.264;11.436;2023-06-05T11:54:31;96035.06;;;34.21;23.61
13604;BME280;24578;48.264;11.436;2023-06-05T11:57:55;96029.47;;;34.49;23.53
13604;BME280;24578;48.264;11.436;2023-06-05T12:01:18;96030.78;;;34.72;24.19
13604;BME280;24578;48.264;11.436;2023-06-05T12:04:43;96025.41;;;34.25;23.04
13604;BME280;24578;48.264;11.436;2023-06-05T12:08:27;96033.91;;;33.17;23.61
13604;BME280;24578;48.264;11.436;2023-06-05T12:11:51;96032.66;;;31.89;25.68
13604;BME280;24578;48.264;11.436;2023-06-05T12:15:18;96028.19;;;31.73;27.07
13604;BME280;24578;48.264;11.436;2023-06-05T12:18:41;96025.03;;;32.31;26.17
13604;BME280;24578;48.264;11.436;2023-06-05T12:22:05;96026.94;;;32.73;26.56
13604;BME280;24578;48.264;11.436;2023-06-05T12:25:27;96013.97;;;33.46;25.57
13604;BME280;24578;48.264;11.436;2023-06-05T12:29:02;96008.75;;;33.97;23.46
13604;BME280;24578;48.264;11.436;2023-06-05T12:32:25;96006.53;;;33.79;24.04
13604;BME280;24578;48.264;11.436;2023-06-05T12:35:47;95992.56;;;33.77;23.72
13604;BME280;24578;48.264;11.436;2023-06-05T12:39:10;95997.47;;;34.21;22.88
13604;BME280;24578;48.264;11.436;2023-06-05T12:42:38;95992.78;;;33.44;24.30
13604;BME280;24578;48.264;11.436;2023-06-05T12:46:00;95987.72;;;33.53;23.72
13604;BME280;24578;48.264;11.436;2023-06-05T12:49:22;95988.25;;;33.60;24.17
13604;BME280;24578;48.264;11.436;2023-06-05T12:52:44;95984.59;;;34.13;23.57
13604;BME280;24578;48.264;11.436;2023-06-05T12:56:06;95985.66;;;34.27;22.39
13604;BME280;24578;48.264;11.436;2023-06-05T12:59:28;95974.34;;;33.68;21.32
13604;BME280;24578;48.264;11.436;2023-06-05T13:02:49;95988.59;;;33.05;24.29
13604;BME280;24578;48.264;11.436;2023-06-05T13:06:11;95978.63;;;33.80;23.16
13604;BME280;24578;48.264;11.436;2023-06-05T13:09:33;95975.44;;;34.04;24.41
13604;BME280;24578;48.264;11.436;2023-06-05T13:12:55;95983.91;;;32.47;26.31
13604;BME280;24578;48.264;11.436;2023-06-05T13:16:17;95993.19;;;30.68;30.00
13604;BME280;24578;48.264;11.436;2023-06-05T13:19:39;95993.41;;;29.41;32.59
13604;BME280;24578;48.264;11.436;2023-06-05T13:23:01;95986.50;;;29.04;34.27
13604;BME280;24578;48.264;11.436;2023-06-05T13:26:22;96000.19;;;28.48;34.70
13604;BME280;24578;48.264;11.436;2023-06-05T13:29:44;96005.25;;;27.84;37.80
13604;BME280;24578;48.264;11.436;2023-06-05T13:33:06;95996.44;;;27.71;38.72
13604;BME280;24578;48.264;11.436;2023-06-05T13:36:28;95989.69;;;27.19;40.94
13604;BME280;24578;48.264;11.436;2023-06-05T13:39:50;95998.75;;;28.10;38.63
13604;BME280;24578;48.264;11.436;2023-06-05T13:43:11;96008.41;;;27.92;39.08
13604;BME280;24578;48.264;11.436;2023-06-05T13:46:33;95994.78;;;26.84;41.67
13604;BME280;24578;48.264;11.436;2023-06-05T13:49:55;96000.84;;;26.08;44.11
13604;BME280;24578;48.264;11.436;2023-06-05T13:53:16;96007.03;;;26.02;44.06
13604;BME280;24578;48.264;11.436;2023-06-05T13:56:38;95991.72;;;26.11;44.04
13604;BME280;24578;48.264;11.436;2023-06-05T14:00:00;95993.94;;;26.07;44.50
13604;BME280;24578;48.264;11.436;2023-06-05T14:03:22;95999.50;;;25.99;44.54
13604;BME280;24578;48.264;11.436;2023-06-05T14:06:43;96001.81;;;25.89;44.75
13604;BME280;24578;48.264;11.436;2023-06-05T14:10:06;95993.88;;;26.21;43.66
13604;BME280;24578;48.264;11.436;2023-06-05T14:13:27;95990.19;;;26.22;44.03
13604;BME280;24578;48.264;11.436;2023-06-05T14:16:50;95993.66;;;26.48;43.39
13604;BME280;24578;48.264;11.436;2023-06-05T14:20:12;96001.31;;;26.37;42.84
13604;BME280;24578;48.264;11.436;2023-06-05T14:23:34;95990.75;;;25.01;47.78
13604;BME280;24578;48.264;11.436;2023-06-05T14:26:56;95979.66;;;25.37;47.58
13604;BME280;24578;48.264;11.436;2023-06-05T14:30:18;95990.56;;;25.09;47.49
13604;BME280;24578;48.264;11.436;2023-06-05T14:33:40;95980.16;;;25.14;49.08
13604;BME280;24578;48.264;11.436;2023-06-05T14:37:02;95985.13;;;25.43;47.17
13604;BME280;24578;48.264;11.436;2023-06-05T14:40:24;95985.03;;;25.63;44.85
13604;BME280;24578;48.264;11.436;2023-06-05T14:43:46;95989.06;;;25.27;46.70
13604;BME280;24578;48.264;11.436;2023-06-05T14:47:07;95991.22;;;24.84;46.85
13604;BME280;24578;48.264;11.436;2023-06-05T14:50:29;95993.72;;;24.52;49.08
13604;BME280;24578;48.264;11.436;2023-06-05T14:53:52;95991.22;;;24.64;49.36
13604;BME280;24578;48.264;11.436;2023-06-05T14:57:14;96005.88;;;24.87;48.76
13604;BME280;24578;48.264;11.436;2023-06-05T15:00:36;96001.78;;;25.04;47.39
13604;BME280;24578;48.264;11.436;2023-06-05T15:03:58;96006.59;;;25.28;46.80
13604;BME280;24578;48.264;11.436;2023-06-05T15:07:20;95996.34;;;25.38;46.67
13604;BME280;24578;48.264;11.436;2023-06-05T15:10:44;95991.16;;;25.11;47.39
13604;BME280;24578;48.264;11.436;2023-06-05T15:14:06;96000.44;;;24.35;50.36
13604;BME280;24578;48.264;11.436;2023-06-05T15:17:28;96001.63;;;24.25;50.92
13604;BME280;24578;48.264;11.436;2023-06-05T15:20:50;95998.59;;;24.15;49.96
13604;BME280;24578;48.264;11.436;2023-06-05T15:24:11;96007.25;;;23.88;50.65
13604;BME280;24578;48.264;11.436;2023-06-05T15:27:33;96008.66;;;23.78;50.53
13604;BME280;24578;48.264;11.436;2023-06-05T15:30:56;96009.00;;;23.61;51.97
13604;BME280;24578;48.264;11.436;2023-06-05T15:34:18;96020.81;;;23.59;52.30
13604;BME280;24578;48.264;11.436;2023-06-05T15:37:39;96010.13;;;23.25;54.17
13604;BME280;24578;48.264;11.436;2023-06-05T15:41:01;96015.72;;;23.15;54.71
13604;BME280;24578;48.264;11.436;2023-06-05T15:44:23;96013.88;;;23.16;54.19
13604;BME280;24578;48.264;11.436;2023-06-05T15:47:45;96022.41;;;23.11;55.28
13604;BME280;24578;48.264;11.436;2023-06-05T15:51:06;96012.81;;;23.03;55.26
13604;BME280;24578;48.264;11.436;2023-06-05T15:54:30;96020.13;;;23.01;54.61
13604;BME280;24578;48.264;11.436;2023-06-05T15:57:52;96016.50;;;23.09;55.99
13604;BME280;24578;48.264;11.436;2023-06-05T16:01:15;96029.34;;;22.84;57.05
13604;BME280;24578;48.264;11.436;2023-06-05T16:04:37;96028.41;;;22.63;59.72
13604;BME280;24578;48.264;11.436;2023-06-05T16:07:59;96018.19;;;22.31;61.62
13604;BME280;24578;48.264;11.436;2023-06-05T16:11:20;96012.69;;;22.26;62.44
13604;BME280;24578;48.264;11.436;2023-06-05T16:14:43;96010.66;;;22.28;62.43
13604;BME280;24578;48.264;11.436;2023-06-05T16:18:05;96003.44;;;22.37;63.03
13604;BME280;24578;48.264;11.436;2023-06-05T16:21:27;96009.72;;;22.36;62.33
13604;BME280;24578;48.264;11.436;2023-06-05T16:24:48;95999.16;;;22.36;61.66
13604;BME280;24578;48.264;11.436;2023-06-05T16:28:10;96004.84;;;22.33;61.66
13604;BME280;24578;48.264;11.436;2023-06-05T16:31:32;96006.28;;;22.35;61.13
13604;BME280;24578;48.264;11.436;2023-06-05T16:34:54;96005.78;;;22.25;61.93
13604;BME280;24578;48.264;11.436;2023-06-05T16:38:16;95993.31;;;22.12;62.00
13604;BME280;24578;48.264;11.436;2023-06-05T16:41:38;95998.34;;;21.85;63.55
13604;BME280;24578;48.264;11.436;2023-06-05T16:45:01;95987.22;;;21.90;63.66
13604;BME280;24578;48.264;11.436;2023-06-05T16:48:23;95996.13;;;21.89;65.11
13604;BME280;24578;48.264;11.436;2023-06-05T16:51:45;96001.28;;;21.75;67.07
13604;BME280;24578;48.264;11.436;2023-06-05T16:55:07;95999.22;;;21.71;67.56
13604;BME280;24578;48.264;11.436;2023-06-05T16:58:29;96003.94;;;21.60;69.20
13604;BME280;24578;48.264;11.436;2023-06-05T17:01:50;96003.25;;;21.37;69.68
13604;BME280;24578;48.264;11.436;2023-06-05T17:05:12;96006.19;;;21.27;71.84
13604;BME280;24578;48.264;11.436;2023-06-05T17:08:34;96006.91;;;21.21;71.68
13604;BME280;24578;48.264;11.436;2023-06-05T17:11:58;96010.28;;;21.14;73.58
13604;BME280;24578;48.264;11.436;2023-06-05T17:15:20;96019.81;;;21.01;74.89
13604;BME280;24578;48.264;11.436;2023-06-05T17:18:41;96022.53;;;20.92;75.95
13604;BME280;24578;48.264;11.436;2023-06-05T17:22:03;96021.97;;;20.82;76.81
13604;BME280;24578;48.264;11.436;2023-06-05T17:25:25;96025.59;;;20.81;78.14
13604;BME280;24578;48.264;11.436;2023-06-05T17:28:47;96025.34;;;20.76;78.35
13604;BME280;24578;48.264;11.436;2023-06-05T17:32:09;96022.84;;;20.74;77.96
13604;BME280;24578;48.264;11.436;2023-06-05T17:35:31;96025.53;;;20.51;79.47
13604;BME280;24578;48.264;11.436;2023-06-05T17:38:53;96038.41;;;20.46;80.47
13604;BME280;24578;48.264;11.436;2023-06-05T17:42:14;96043.41;;;20.32;82.92
13604;BME280;24578;48.264;11.436;2023-06-05T17:45:50;96046.13;;;20.24;84.59
13604;BME280;24578;48.264;11.436;2023-06-05T17:49:11;96048.34;;;20.35;84.39
13604;BME280;24578;48.264;11.436;2023-06-05T17:52:33;96046.88;;;20.33;84.21
13604;BME280;24578;48.264;11.436;2023-06-05T17:55:55;96049.81;;;20.38;82.75
13604;BME280;24578;48.264;11.436;2023-06-05T17:59:17;96056.75;;;20.07;85.41
13604;BME280;24578;48.264;11.436;2023-06-05T18:02:38;96055.34;;;19.97;87.96
13604;BME280;24578;48.264;11.436;2023-06-05T18:06:00;96060.78;;;19.95;88.83